createdAt,value
2019-06-01T00:04:03.586Z,75.78
2019-06-01T00:09:09.146Z,75.66
2019-06-01T00:14:14.502Z,76.04
2019-06-01T00:19:19.966Z,76.36
2019-06-01T00:24:25.539Z,76.38
2019-06-01T00:29:30.866Z,76.86
2019-06-01T00:34:36.403Z,77.02
2019-06-01T00:39:41.789Z,76.99
2019-06-01T00:44:48.501Z,77.09
2019-06-01T00:49:53.818Z,77.41
2019-06-01T00:54:59.076Z,77.46
2019-06-01T01:00:06.510Z,77.49
2019-06-01T01:05:17.341Z,77.50
2019-06-01T01:10:22.954Z,77.49
2019-06-01T01:15:28.346Z,78.07
2019-06-01T01:20:34.177Z,78.81
2019-06-01T01:25:39.540Z,79.08
2019-06-01T01:31:01.688Z,79.46
2019-06-01T01:35:52.566Z,79.85
2019-06-01T01:40:59.458Z,80.08
2019-06-01T01:46:05.358Z,80.66
2019-06-01T01:51:11.700Z,80.58
2019-06-01T01:56:17.163Z,80.58
2019-06-01T02:01:23.268Z,80.86
2019-06-01T02:06:29.295Z,81.25
2019-06-01T02:11:34.863Z,81.54
2019-06-01T02:16:40.229Z,81.67
2019-06-01T02:21:45.548Z,81.67
2019-06-01T02:26:53.030Z,81.72
2019-06-01T02:31:59.162Z,81.47
2019-06-01T02:37:04.700Z,81.60
2019-06-01T02:42:11.868Z,81.64
2019-06-01T02:47:17.399Z,81.52
2019-06-01T02:52:22.906Z,81.33
2019-06-01T02:57:28.151Z,81.25
2019-06-01T03:02:33.779Z,81.12
2019-06-01T03:07:42.919Z,80.93
2019-06-01T03:12:50.568Z,81.01
2019-06-01T03:17:59.410Z,80.86
2019-06-01T03:23:05.818Z,80.99
2019-06-01T03:28:14.044Z,80.98
2019-06-01T03:33:19.444Z,80.98
2019-06-01T03:38:24.904Z,80.93
2019-06-01T03:43:30.272Z,80.85
2019-06-01T03:48:35.830Z,80.68
2019-06-01T03:53:41.185Z,80.54
2019-06-01T03:58:46.749Z,80.34
2019-06-01T04:03:52.107Z,79.85
2019-06-01T04:08:57.423Z,79.51
2019-06-01T04:14:03.414Z,78.82
2019-06-01T04:19:10.032Z,78.83
2019-06-01T04:24:15.498Z,78.65
2019-06-01T04:29:20.735Z,77.69
2019-06-01T04:34:26.008Z,77.58
2019-06-01T04:39:31.371Z,77.47
2019-06-01T04:44:36.841Z,77.58
2019-06-01T04:49:42.134Z,77.08
2019-06-01T04:54:47.382Z,76.82
2019-06-01T04:59:52.634Z,76.82
2019-06-01T05:04:58.169Z,76.11
2019-06-01T05:10:05.171Z,75.94
2019-06-01T05:15:15.975Z,75.66
2019-06-01T05:20:21.937Z,75.73
2019-06-01T05:25:27.317Z,75.55
2019-06-01T05:30:32.559Z,75.17
2019-06-01T05:35:37.853Z,74.75
2019-06-01T05:40:43.281Z,74.39
2019-06-01T05:45:48.606Z,73.12
2019-06-01T05:50:53.892Z,72.05
2019-06-01T05:55:59.321Z,72.74
2019-06-01T06:01:04.792Z,71.47
2019-06-01T06:06:10.088Z,70.63
2019-06-01T06:11:15.349Z,69.53
2019-06-01T06:16:21.273Z,69.69
2019-06-01T06:21:27.891Z,69.24
2019-06-01T06:26:33.080Z,66.91
2019-06-01T06:31:38.586Z,68.08
2019-06-01T06:36:43.729Z,68.66
2019-06-01T06:41:48.864Z,68.12
2019-06-01T06:46:54.009Z,68.27
2019-06-01T06:51:59.388Z,68.25
2019-06-01T06:57:04.596Z,68.95
2019-06-01T07:02:09.948Z,69.06
2019-06-01T07:07:15.380Z,68.57
2019-06-01T07:12:21.226Z,67.86
2019-06-01T07:17:27.775Z,67.95
2019-06-01T07:22:32.846Z,67.93
2019-06-01T07:27:38.041Z,66.73
2019-06-01T07:32:43.226Z,64.56
2019-06-01T07:37:48.538Z,64.22
2019-06-01T07:42:53.805Z,63.71
2019-06-01T07:53:58.114Z,61.57
2019-06-01T07:59:04.470Z,62.11
2019-06-01T08:04:09.860Z,62.29
2019-06-01T08:09:15.025Z,61.61
2019-06-01T08:14:20.462Z,61.10
2019-06-01T08:19:26.157Z,61.03
2019-06-01T08:24:32.409Z,59.74
2019-06-01T08:29:38.044Z,59.65
2019-06-01T08:34:43.615Z,59.68
2019-06-01T08:39:49.027Z,59.16
2019-06-01T08:44:54.382Z,59.48
2019-06-01T08:49:59.917Z,59.77
2019-06-01T08:55:07.797Z,61.55
2019-06-01T09:00:14.191Z,62.26
2019-06-01T09:05:24.292Z,62.02
2019-06-01T09:10:27.541Z,61.13
2019-06-01T09:15:33.725Z,61.09
2019-06-01T09:20:39.159Z,60.79
2019-06-01T09:25:45.137Z,60.85
2019-06-01T09:30:50.774Z,60.37
2019-06-01T09:35:56.568Z,61.09
2019-06-01T09:41:02.044Z,61.24
2019-06-01T09:46:07.448Z,61.44
2019-06-01T09:51:12.919Z,61.63
2019-06-01T09:56:18.371Z,60.70
2019-06-01T10:01:23.633Z,60.44
2019-06-01T10:06:28.854Z,60.23
2019-06-01T10:11:34.353Z,59.38
2019-06-01T10:16:40.031Z,59.54
2019-06-01T10:21:45.250Z,59.24
2019-06-01T10:26:51.136Z,58.97
2019-06-01T10:31:56.344Z,58.39
2019-06-01T10:37:01.656Z,55.22
2019-06-01T10:42:07.128Z,51.63
2019-06-01T10:47:13.508Z,53.02
2019-06-01T10:52:18.967Z,55.45
2019-06-01T10:57:24.090Z,51.28
2019-06-01T11:02:29.394Z,50.10
2019-06-01T11:07:36.760Z,50.99
2019-06-01T11:12:43.263Z,50.01
2019-06-01T11:17:48.640Z,48.37
2019-06-01T11:22:53.733Z,46.24
2019-06-01T11:27:59.109Z,45.72
2019-06-01T11:33:04.416Z,45.66
2019-06-01T11:38:09.665Z,47.13
2019-06-01T11:43:14.801Z,48.20
2019-06-01T11:48:20.356Z,47.30
2019-06-01T11:53:25.825Z,47.38
2019-06-01T11:58:31.090Z,48.82
2019-06-01T12:03:37.556Z,48.48
2019-06-01T12:08:44.075Z,47.66
2019-06-01T12:13:50.037Z,49.17
2019-06-01T12:18:55.378Z,53.64
2019-06-01T12:24:00.460Z,54.31
2019-06-01T12:29:05.892Z,53.21
2019-06-01T12:34:11.147Z,52.93
2019-06-01T12:39:17.460Z,50.85
2019-06-01T12:44:22.730Z,50.17
2019-06-01T12:49:28.855Z,48.92
2019-06-01T12:54:34.161Z,44.89
2019-06-01T12:59:40.976Z,44.98
2019-06-01T13:04:46.865Z,45.91
2019-06-01T13:09:53.006Z,44.50
2019-06-01T13:14:58.405Z,42.90
2019-06-01T13:20:07.470Z,41.58
2019-06-01T13:25:13.951Z,42.00
2019-06-01T13:30:19.450Z,42.00
2019-06-01T13:35:24.586Z,43.80
2019-06-01T13:40:30.027Z,43.76
2019-06-01T13:45:35.263Z,43.38
2019-06-01T13:50:40.384Z,41.88
2019-06-01T13:55:46.098Z,42.07
2019-06-01T14:00:53.116Z,42.04
2019-06-01T14:06:00.972Z,45.75
2019-06-01T14:11:05.639Z,45.99
2019-06-01T14:16:10.796Z,43.84
2019-06-01T14:21:16.003Z,43.08
2019-06-01T14:26:21.334Z,43.58
2019-06-01T14:31:26.527Z,42.41
2019-06-01T14:36:31.936Z,42.13
2019-06-01T14:41:38.785Z,37.97
2019-06-01T14:46:55.024Z,37.80
2019-06-01T14:51:51.570Z,38.17
2019-06-01T14:56:57.950Z,38.98
2019-06-01T15:02:03.869Z,44.64
2019-06-01T15:07:09.273Z,46.01
2019-06-01T15:12:14.975Z,46.85
2019-06-01T15:17:20.768Z,47.96
2019-06-01T15:22:26.366Z,51.55
2019-06-01T15:27:34.232Z,58.45
2019-06-01T15:32:39.993Z,71.52
2019-06-01T15:37:46.030Z,77.62
2019-06-01T15:42:52.250Z,78.52
2019-06-01T15:48:00.568Z,79.19
2019-06-01T15:53:05.887Z,79.12
2019-06-01T15:58:11.177Z,77.94
2019-06-01T16:03:16.544Z,79.37
2019-06-01T16:08:21.901Z,77.43
2019-06-01T16:13:27.358Z,75.69
2019-06-01T16:18:32.616Z,73.20
2019-06-01T16:23:49.302Z,68.03
2019-06-01T16:28:45.283Z,63.07
2019-06-01T16:33:50.714Z,57.03
2019-06-01T16:39:02.732Z,59.03
2019-06-01T16:44:03.777Z,60.20
2019-06-01T16:49:09.195Z,64.30
2019-06-01T16:54:14.757Z,64.66
2019-06-01T16:59:20.108Z,65.97
2019-06-01T17:04:25.272Z,67.48
2019-06-01T17:09:30.471Z,65.31
2019-06-01T17:14:35.587Z,63.45
2019-06-01T17:19:41.010Z,63.23
2019-06-01T17:24:46.047Z,63.76
2019-06-01T17:29:51.293Z,65.58
2019-06-01T17:34:56.451Z,66.38
2019-06-01T17:40:02.469Z,66.96
2019-06-01T17:45:09.609Z,67.34
2019-06-01T17:50:18.280Z,65.87
2019-06-01T17:55:38.600Z,65.90
2019-06-01T18:00:44.067Z,67.72
2019-06-01T18:05:49.531Z,68.27
2019-06-01T18:10:55.203Z,69.76
2019-06-01T18:16:03.024Z,69.96
2019-06-01T18:21:10.380Z,69.51
2019-06-01T18:26:16.367Z,70.79
2019-06-01T18:31:22.505Z,70.31
2019-06-01T18:36:27.793Z,70.72
2019-06-01T18:41:32.850Z,71.47
2019-06-01T18:46:38.375Z,72.45
2019-06-01T18:51:43.892Z,73.01
2019-06-01T18:56:49.480Z,73.74
2019-06-01T19:01:54.905Z,74.66
2019-06-01T19:07:00.172Z,75.98
2019-06-01T19:12:06.682Z,75.92
2019-06-01T19:17:12.358Z,76.77
2019-06-01T19:22:17.900Z,77.42
2019-06-01T19:27:23.251Z,77.29
2019-06-01T19:32:28.720Z,77.62
2019-06-01T19:37:38.656Z,77.97
2019-06-01T19:42:43.681Z,78.26
2019-06-01T19:47:49.280Z,78.68
2019-06-01T19:52:54.966Z,78.51
2019-06-01T19:58:00.524Z,78.53
2019-06-01T20:03:06.719Z,78.90
2019-06-01T20:08:12.213Z,79.30
2019-06-01T20:13:17.457Z,78.69
2019-06-01T20:18:23.038Z,78.64
2019-06-01T20:23:28.409Z,78.57
2019-06-01T20:28:34.015Z,79.56
2019-06-01T20:33:39.351Z,79.05
2019-06-01T20:38:44.733Z,79.52
2019-06-01T20:43:50.094Z,79.74
2019-06-01T20:48:55.653Z,79.41
2019-06-01T20:54:00.922Z,78.89
2019-06-01T20:59:06.682Z,78.72
2019-06-01T21:04:11.898Z,79.50
2019-06-01T21:09:17.817Z,78.97
2019-06-01T21:14:23.393Z,78.99
2019-06-01T21:19:28.833Z,79.18
2019-06-01T21:24:34.137Z,79.02
2019-06-01T21:29:39.451Z,78.76
2019-06-01T21:34:44.804Z,78.54
2019-06-01T21:39:50.267Z,78.51
2019-06-01T21:44:55.546Z,78.41
2019-06-01T21:50:00.823Z,78.48
2019-06-01T21:55:09.324Z,78.50
2019-06-01T22:00:28.537Z,78.27
2019-06-01T22:05:35.348Z,78.29
2019-06-01T22:10:40.739Z,78.52
2019-06-01T22:15:45.965Z,78.44
2019-06-01T22:20:52.366Z,77.99
2019-06-01T22:25:57.847Z,78.24
2019-06-01T22:31:03.299Z,78.41
2019-06-01T22:36:08.652Z,78.42
2019-06-01T22:41:13.921Z,78.12
2019-06-01T22:46:20.398Z,78.07
2019-06-01T22:51:27.053Z,78.26
2019-06-01T22:56:32.867Z,78.01
2019-06-01T23:01:39.853Z,78.19
2019-06-01T23:06:46.240Z,78.12
2019-06-01T23:11:51.491Z,78.58
2019-06-01T23:16:56.960Z,79.08
2019-06-01T23:22:02.323Z,78.88
2019-06-01T23:27:07.996Z,78.45
2019-06-01T23:32:13.342Z,78.83
2019-06-01T23:37:18.712Z,78.82
2019-06-01T23:42:24.577Z,78.87
2019-06-01T23:47:31.272Z,78.45
2019-06-01T23:52:37.034Z,77.93
2019-06-01T23:57:42.702Z,78.28
